Time;durP1;ratioP1;P1;durP2;ratioP2;P2;SDS_P1;SDS_P2;PMS_P1;PMS_P2;Temp;Humidity;BMP_temperature;BMP_pressure;BME280_temperature;BME280_humidity;BME280_pressure;Samples;Min_cycle;Max_cycle;Signal;HPM_P1;HPM_P2
2023/02/12 00:00:35;;;;;;;62.20;37.50;;;8.10;99.90;;;;;;5052880;28;20424;-79
2023/02/12 00:03:01;;;;;;;61.83;36.43;;;8.10;99.90;;;;;;5038656;28;20448;-79
2023/02/12 00:05:27;;;;;;;58.57;34.00;;;8.00;99.90;;;;;;5037833;28;20988;-79
2023/02/12 00:07:53;;;;;;;58.90;34.40;;;8.10;99.90;;;;;;5037117;28;20182;-79
2023/02/12 00:10:18;;;;;;;60.73;35.13;;;8.20;99.90;;;;;;5038655;28;20183;-79
2023/02/12 00:12:44;;;;;;;59.20;33.30;;;8.30;99.90;;;;;;5039002;28;20522;-79
2023/02/12 00:15:10;;;;;;;55.13;33.83;;;8.30;99.90;;;;;;5021623;28;20182;-79
2023/02/12 00:17:35;;;;;;;65.00;36.03;;;8.20;99.90;;;;;;5037759;28;20220;-79
2023/02/12 00:20:01;;;;;;;53.47;32.10;;;8.40;99.90;;;;;;5037465;28;20170;-79
2023/02/12 00:22:28;;;;;;;57.47;33.60;;;8.10;99.90;;;;;;5020163;28;20190;-78
2023/02/12 00:24:54;;;;;;;52.83;32.70;;;8.30;99.90;;;;;;5021035;28;20178;-79
2023/02/12 00:27:21;;;;;;;59.17;34.30;;;7.80;99.90;;;;;;5039224;28;20417;-78
2023/02/12 00:29:46;;;;;;;61.97;36.80;;;8.10;99.90;;;;;;5039162;28;20409;-79
2023/02/12 00:32:13;;;;;;;57.10;35.70;;;8.20;99.90;;;;;;5038464;28;21007;-79
2023/02/12 00:34:39;;;;;;;68.80;38.13;;;8.10;99.90;;;;;;5037341;28;20451;-78
2023/02/12 00:37:05;;;;;;;63.10;36.17;;;8.10;99.90;;;;;;5039542;28;20409;-79
2023/02/12 00:39:31;;;;;;;63.93;36.03;;;8.10;99.90;;;;;;5053777;28;20409;-77
2023/02/12 00:41:56;;;;;;;60.47;36.17;;;8.20;99.90;;;;;;5059424;28;20437;-78
2023/02/12 00:44:22;;;;;;;61.63;36.97;;;8.30;99.90;;;;;;5058414;28;20177;-79
2023/02/12 00:46:48;;;;;;;64.73;36.30;;;8.30;99.90;;;;;;5059615;28;20231;-79
2023/02/12 00:49:14;;;;;;;68.07;36.90;;;8.10;99.90;;;;;;5057435;28;20181;-78
2023/02/12 00:51:40;;;;;;;61.73;37.50;;;8.20;99.90;;;;;;5052678;28;20620;-79
2023/02/12 00:54:06;;;;;;;60.20;36.47;;;8.20;99.90;;;;;;5052414;28;20484;-79
2023/02/12 00:56:31;;;;;;;60.17;36.57;;;8.20;99.90;;;;;;5054027;28;20379;-78
2023/02/12 00:58:57;;;;;;;68.57;38.83;;;8.20;99.90;;;;;;5055430;28;20189;-79
2023/02/12 01:01:23;;;;;;;73.17;37.27;;;8.20;99.90;;;;;;5056493;28;20197;-78
2023/02/12 01:03:48;;;;;;;58.27;33.80;;;8.20;99.90;;;;;;5057388;28;20235;-77
2023/02/12 01:06:14;;;;;;;59.87;35.67;;;8.10;99.90;;;;;;5056700;28;20429;-79
2023/02/12 01:08:40;;;;;;;61.87;35.23;;;8.20;99.90;;;;;;5056757;28;20197;-79
2023/02/12 01:11:06;;;;;;;61.67;36.03;;;8.20;99.90;;;;;;5056681;28;20202;-79
2023/02/12 01:13:33;;;;;;;64.00;36.07;;;8.20;99.90;;;;;;5058118;28;20201;-79
2023/02/12 01:16:05;;;;;;;56.07;32.20;;;8.20;99.90;;;;;;5058434;28;20423;-79
2023/02/12 01:18:31;;;;;;;54.33;33.90;;;8.20;99.90;;;;;;5056899;28;20438;-78
2023/02/12 01:20:57;;;;;;;51.67;31.80;;;8.10;99.90;;;;;;5058032;28;20412;-78
2023/02/12 01:23:23;;;;;;;65.00;36.63;;;8.10;99.90;;;;;;5057099;28;20186;-79
2023/02/12 01:25:49;;;;;;;56.77;31.20;;;8.10;99.90;;;;;;5057863;28;20478;-78
2023/02/12 01:28:14;;;;;;;54.87;33.90;;;8.10;99.90;;;;;;5058241;28;20180;-79
2023/02/12 01:30:40;;;;;;;58.17;33.70;;;8.10;99.90;;;;;;5057926;28;20169;-77
2023/02/12 01:33:06;;;;;;;49.80;30.63;;;8.10;99.90;;;;;;5056791;28;20288;-79
2023/02/12 01:35:31;;;;;;;48.80;30.93;;;8.10;99.90;;;;;;5058088;28;20177;-78
2023/02/12 01:37:57;;;;;;;56.80;32.37;;;8.10;99.90;;;;;;5036601;28;20167;-79
2023/02/12 01:40:23;;;;;;;46.43;30.47;;;8.30;99.90;;;;;;5037998;28;20270;-79
2023/02/12 01:42:49;;;;;;;55.63;33.70;;;8.20;99.90;;;;;;5037287;28;20457;-77
2023/02/12 01:45:14;;;;;;;50.83;31.43;;;8.30;99.90;;;;;;5037000;28;20723;-79
2023/02/12 01:47:44;;;;;;;54.43;31.23;;;8.10;99.90;;;;;;5040698;28;20209;-78
2023/02/12 01:50:19;;;;;;;56.00;32.40;;;8.10;99.90;;;;;;5023708;28;20186;-79
2023/02/12 01:52:52;;;;;;;52.50;31.20;;;8.10;99.90;;;;;;5039601;28;20571;-78
2023/02/12 01:55:19;;;;;;;47.67;29.70;;;8.10;99.90;;;;;;5039983;28;20437;-79
2023/02/12 01:57:46;;;;;;;51.03;30.60;;;8.10;99.90;;;;;;5056231;28;20417;-79
2023/02/12 02:00:22;;;;;;;54.47;33.00;;;8.10;99.90;;;;;;5041197;28;20424;-78
2023/02/12 02:02:56;;;;;;;54.90;33.40;;;8.10;99.90;;;;;;5041229;28;20436;-79
2023/02/12 02:06:01;;;;;;;55.53;32.73;;;8.20;99.90;;;;;;5040995;28;20420;-78
2023/02/12 02:08:28;;;;;;;53.87;32.37;;;8.10;99.90;;;;;;5040041;28;20448;-79
2023/02/12 02:10:53;;;;;;;49.90;30.03;;;8.20;99.90;;;;;;5040247;28;20840;-79
2023/02/12 02:16:21;;;;;;;50.30;32.13;;;8.00;99.90;;;;;;5041144;28;20174;-78
2023/02/12 02:19:01;;;;;;;50.50;32.23;;;8.10;99.90;;;;;;5039871;28;20428;-78
2023/02/12 02:21:50;;;;;;;50.90;29.93;;;8.10;99.90;;;;;;5039304;28;20436;-78
2023/02/12 02:24:36;;;;;;;56.37;31.93;;;8.10;99.90;;;;;;5072442;28;20521;-79
2023/02/12 02:27:23;;;;;;;55.23;32.70;;;8.00;99.90;;;;;;5040564;28;20421;-78
2023/02/12 02:30:10;;;;;;;52.30;31.50;;;8.10;99.90;;;;;;5039969;28;20456;-79
2023/02/12 02:32:44;;;;;;;57.83;31.90;;;8.10;99.90;;;;;;5040290;28;20441;-78
2023/02/12 02:35:15;;;;;;;63.30;32.90;;;8.10;99.90;;;;;;5041417;28;20420;-78
2023/02/12 02:37:55;;;;;;;51.73;32.40;;;8.10;99.90;;;;;;5041595;28;20414;-79
2023/02/12 02:40:30;;;;;;;48.60;30.60;;;8.10;99.90;;;;;;5042779;28;20424;-79
2023/02/12 02:43:03;;;;;;;59.50;31.33;;;8.00;99.90;;;;;;5060904;28;20497;-78
2023/02/12 02:45:39;;;;;;;56.27;31.90;;;8.00;99.90;;;;;;5059331;28;20460;-78
2023/02/12 02:48:20;;;;;;;52.20;31.20;;;8.00;99.90;;;;;;5060699;28;20438;-78
2023/02/12 02:51:17;;;;;;;59.20;33.70;;;7.90;99.90;;;;;;5058809;28;20967;-78
2023/02/12 02:53:48;;;;;;;55.33;32.60;;;7.90;99.90;;;;;;5041940;28;20786;-78
2023/02/12 02:56:19;;;;;;;54.83;33.97;;;8.00;99.90;;;;;;5057085;28;21015;-78
2023/02/12 02:58:53;;;;;;;52.47;32.27;;;8.00;99.90;;;;;;5057824;28;20438;-78
2023/02/12 03:01:31;;;;;;;52.30;31.17;;;8.00;99.90;;;;;;5059497;28;20475;-77
2023/02/12 03:04:10;;;;;;;55.87;32.37;;;8.00;99.90;;;;;;5059474;28;20446;-78
2023/02/12 03:06:46;;;;;;;58.77;33.27;;;8.20;99.90;;;;;;5058343;28;20427;-78
2023/02/12 03:09:58;;;;;;;51.20;31.10;;;8.10;99.90;;;;;;5057424;28;20952;-78
2023/02/12 03:12:33;;;;;;;52.60;31.73;;;7.90;99.90;;;;;;4960526;28;20463;-79
2023/02/12 03:15:13;;;;;;;58.80;34.90;;;8.10;99.90;;;;;;5043479;28;20979;-79
2023/02/12 03:17:44;;;;;;;48.47;31.07;;;8.00;99.90;;;;;;5054314;28;20412;-79
2023/02/12 03:20:18;;;;;;;51.73;33.30;;;8.10;99.90;;;;;;5053547;28;20396;-79
2023/02/12 03:22:52;;;;;;;55.60;33.87;;;8.00;99.90;;;;;;5037252;28;20463;-78
2023/02/12 03:25:24;;;;;;;52.10;30.07;;;8.00;99.90;;;;;;5053418;28;20462;-79
2023/02/12 03:28:21;;;;;;;56.83;33.73;;;8.00;99.90;;;;;;5053624;28;20415;-78
2023/02/12 03:31:11;;;;;;;54.00;32.33;;;8.00;99.90;;;;;;5053516;28;20416;-80
2023/02/12 03:33:55;;;;;;;62.03;32.27;;;8.00;99.90;;;;;;5054513;28;20460;-79
2023/02/12 03:36:24;;;;;;;57.73;32.20;;;8.00;99.90;;;;;;5053655;28;20412;-79
2023/02/12 03:38:54;;;;;;;62.87;31.97;;;8.00;99.90;;;;;;5043740;28;20475;-79
2023/02/12 03:41:27;;;;;;;55.50;32.93;;;8.10;99.90;;;;;;5033893;28;20469;-78
2023/02/12 03:44:06;;;;;;;53.77;31.30;;;8.20;99.90;;;;;;5066974;28;20413;-79
2023/02/12 03:46:42;;;;;;;55.77;33.90;;;8.00;99.90;;;;;;5035590;28;20421;-78
2023/02/12 03:49:22;;;;;;;50.87;30.70;;;8.30;99.90;;;;;;5035083;28;20447;-79
2023/02/12 03:51:48;;;;;;;55.53;32.13;;;8.20;99.90;;;;;;5035217;28;20443;-79
2023/02/12 03:54:18;;;;;;;57.97;31.63;;;8.10;99.90;;;;;;5034833;28;20475;-79
2023/02/12 03:57:07;;;;;;;54.80;30.67;;;8.00;99.90;;;;;;5066553;28;20433;-79
2023/02/12 03:59:36;;;;;;;51.73;30.90;;;8.10;99.90;;;;;;5033804;28;20420;-77
2023/02/12 04:02:02;;;;;;;56.23;31.73;;;8.00;99.90;;;;;;5066790;28;20532;-79
2023/02/12 04:04:29;;;;;;;50.67;31.03;;;7.90;99.90;;;;;;5066942;28;20441;-80
2023/02/12 04:06:55;;;;;;;53.33;31.97;;;8.10;99.90;;;;;;5034771;28;20484;-79
2023/02/12 04:09:22;;;;;;;52.30;31.60;;;8.00;99.90;;;;;;5034785;28;20508;-77
2023/02/12 04:12:25;;;;;;;51.67;31.23;;;7.90;99.90;;;;;;5033395;28;20493;-78
2023/02/12 04:15:22;;;;;;;49.40;29.93;;;8.00;99.90;;;;;;5033113;28;20996;-78
2023/02/12 04:17:59;;;;;;;47.50;29.17;;;8.00;99.90;;;;;;5034307;28;20449;-78
2023/02/12 04:20:46;;;;;;;56.73;30.10;;;8.00;99.90;;;;;;5034347;28;20413;-79
2023/02/12 04:23:39;;;;;;;50.23;30.00;;;8.10;99.90;;;;;;5033541;28;20788;-78
2023/02/12 04:26:08;;;;;;;46.60;29.60;;;8.00;99.90;;;;;;5034999;28;20437;-79
2023/02/12 04:29:02;;;;;;;48.63;29.50;;;8.00;99.90;;;;;;5033045;28;20904;-79
2023/02/12 04:31:50;;;;;;;47.60;28.27;;;7.90;99.90;;;;;;5034755;28;20523;-79
2023/02/12 04:34:41;;;;;;;49.17;30.33;;;8.00;99.90;;;;;;5034311;28;20465;-80
2023/02/12 04:37:16;;;;;;;46.10;28.80;;;8.20;99.90;;;;;;5034716;28;20417;-80
2023/02/12 04:39:44;;;;;;;46.93;29.27;;;7.90;99.90;;;;;;5052196;28;20820;-78
2023/02/12 04:42:10;;;;;;;47.83;28.90;;;8.00;99.90;;;;;;5054138;28;20444;-78
2023/02/12 04:44:41;;;;;;;58.90;32.80;;;7.90;99.90;;;;;;5053004;28;20450;-79
2023/02/12 04:47:09;;;;;;;50.73;28.90;;;7.90;99.90;;;;;;5054339;28;20186;-77
2023/02/12 04:49:34;;;;;;;50.00;28.50;;;8.00;99.90;;;;;;5054475;28;20424;-78
2023/02/12 04:52:00;;;;;;;49.63;30.87;;;8.00;99.90;;;;;;5054738;28;20534;-80
2023/02/12 04:54:26;;;;;;;46.07;28.00;;;7.90;99.90;;;;;;5054279;28;20228;-78
2023/02/12 04:56:51;;;;;;;48.33;28.83;;;8.20;99.90;;;;;;5053550;28;20229;-77
2023/02/12 04:59:17;;;;;;;54.50;30.53;;;8.00;99.90;;;;;;5052864;28;20197;-78
2023/02/12 05:01:44;;;;;;;50.20;29.60;;;8.10;99.90;;;;;;5054165;28;20289;-79
2023/02/12 05:04:12;;;;;;;47.37;29.13;;;8.00;99.90;;;;;;5052503;28;20178;-79
2023/02/12 05:06:39;;;;;;;46.93;29.80;;;8.00;99.90;;;;;;5053127;28;20447;-79
2023/02/12 05:09:07;;;;;;;48.10;29.63;;;7.90;99.90;;;;;;5054595;28;20443;-79
2023/02/12 05:11:33;;;;;;;52.00;30.03;;;7.90;99.90;;;;;;5036312;28;20509;-80
2023/02/12 05:13:58;;;;;;;42.60;28.33;;;7.90;99.90;;;;;;5054850;28;20976;-79
2023/02/12 05:16:25;;;;;;;53.10;29.60;;;7.90;99.90;;;;;;5036345;28;20599;-79
2023/02/12 05:18:50;;;;;;;48.83;30.83;;;7.90;99.90;;;;;;5053000;28;20443;-79
2023/02/12 05:21:16;;;;;;;51.40;31.60;;;7.90;99.90;;;;;;5054962;28;20440;-79
2023/02/12 05:23:42;;;;;;;49.83;30.93;;;7.90;99.90;;;;;;5056384;28;20634;-77
2023/02/12 05:26:16;;;;;;;52.77;29.57;;;8.00;99.90;;;;;;5058685;28;20924;-78
2023/02/12 05:28:43;;;;;;;46.30;30.07;;;8.10;99.90;;;;;;5058176;28;20416;-78
2023/02/12 05:31:12;;;;;;;49.73;29.00;;;8.10;99.90;;;;;;5057565;28;20535;-78
2023/02/12 05:33:40;;;;;;;47.83;30.20;;;7.90;99.90;;;;;;5056636;28;20545;-79
2023/02/12 05:36:08;;;;;;;46.23;29.57;;;7.90;99.90;;;;;;5056507;28;20420;-79
2023/02/12 05:38:34;;;;;;;48.43;31.17;;;7.90;99.90;;;;;;5047716;28;20922;-80
2023/02/12 05:41:04;;;;;;;57.17;29.23;;;7.90;99.90;;;;;;5070310;28;20413;-79
2023/02/12 05:43:30;;;;;;;53.87;30.30;;;7.80;99.90;;;;;;5035693;28;20700;-79
2023/02/12 05:46:04;;;;;;;50.60;30.00;;;8.00;99.90;;;;;;5035527;28;20456;-78
2023/02/12 05:48:30;;;;;;;47.10;28.27;;;7.90;99.90;;;;;;5033478;28;20416;-78
2023/02/12 05:51:10;;;;;;;47.97;30.70;;;7.90;99.90;;;;;;5052176;28;20416;-79
2023/02/12 05:53:37;;;;;;;42.40;27.90;;;8.10;99.90;;;;;;5052624;28;20496;-79
2023/02/12 05:56:13;;;;;;;49.30;30.43;;;7.90;99.90;;;;;;5036620;28;20712;-80
2023/02/12 05:58:40;;;;;;;49.83;29.47;;;8.00;99.90;;;;;;5036753;28;20769;-80
2023/02/12 06:01:15;;;;;;;51.53;31.10;;;7.90;99.90;;;;;;5037167;28;20821;-80
2023/02/12 06:03:41;;;;;;;50.23;31.00;;;7.80;99.90;;;;;;5070095;28;20418;-79
2023/02/12 06:06:08;;;;;;;51.23;30.30;;;7.90;99.90;;;;;;5036974;28;20484;-80
2023/02/12 06:08:34;;;;;;;50.97;31.17;;;7.90;99.90;;;;;;5053462;28;20417;-79
2023/02/12 06:11:02;;;;;;;49.93;30.50;;;7.90;99.90;;;;;;5069944;28;20425;-79
2023/02/12 06:13:29;;;;;;;48.83;30.53;;;8.00;99.90;;;;;;5053730;28;20985;-79
2023/02/12 06:15:55;;;;;;;47.00;30.53;;;7.90;99.90;;;;;;5038776;28;20865;-79
2023/02/12 06:18:21;;;;;;;48.80;30.73;;;8.10;99.90;;;;;;5069817;28;20421;-80
2023/02/12 06:20:47;;;;;;;52.00;30.27;;;8.00;99.90;;;;;;5036882;28;20520;-79
2023/02/12 06:23:13;;;;;;;46.57;29.33;;;7.90;99.90;;;;;;5069245;28;20449;-80
2023/02/12 06:25:38;;;;;;;51.53;28.20;;;8.00;99.90;;;;;;5053842;28;20428;-80
2023/02/12 06:28:04;;;;;;;50.37;28.70;;;7.90;99.90;;;;;;5037386;28;20177;-78
2023/02/12 06:30:32;;;;;;;46.77;28.13;;;8.00;99.90;;;;;;5037346;28;20178;-79
2023/02/12 06:32:58;;;;;;;45.30;27.83;;;7.90;99.90;;;;;;5036554;28;20209;-78
2023/02/12 06:35:23;;;;;;;44.10;27.37;;;8.10;99.90;;;;;;5037800;28;20413;-79
2023/02/12 06:37:49;;;;;;;47.67;29.97;;;7.90;99.90;;;;;;5022766;28;20673;-78
2023/02/12 06:40:15;;;;;;;50.03;29.63;;;7.80;99.90;;;;;;5056261;28;20235;-79
2023/02/12 06:42:40;;;;;;;43.40;27.37;;;8.00;99.90;;;;;;5039335;28;20217;-77
2023/02/12 06:45:07;;;;;;;47.50;29.17;;;7.90;99.90;;;;;;5038812;28;20452;-79
2023/02/12 06:47:32;;;;;;;47.77;29.87;;;7.90;99.90;;;;;;5055688;28;20585;-80
2023/02/12 06:49:58;;;;;;;48.33;29.13;;;7.90;99.90;;;;;;5056852;28;20488;-80
2023/02/12 06:52:23;;;;;;;49.17;30.90;;;7.90;99.90;;;;;;5055495;28;20205;-79
2023/02/12 06:54:49;;;;;;;47.10;29.13;;;7.90;99.90;;;;;;5056492;28;20708;-78
2023/02/12 06:57:15;;;;;;;50.77;27.90;;;8.00;99.90;;;;;;5056362;28;20251;-80
2023/02/12 06:59:40;;;;;;;47.43;29.77;;;7.90;99.90;;;;;;5055720;28;20182;-80
2023/02/12 07:02:06;;;;;;;43.80;28.70;;;8.20;99.90;;;;;;5038764;28;20197;-78
2023/02/12 07:04:31;;;;;;;48.53;30.50;;;7.90;99.90;;;;;;5056722;28;20265;-78
2023/02/12 07:06:57;;;;;;;49.07;30.60;;;7.90;99.90;;;;;;5056434;28;20178;-79
2023/02/12 07:09:23;;;;;;;45.57;29.43;;;7.90;99.90;;;;;;5056957;28;20186;-80
2023/02/12 07:11:49;;;;;;;50.00;31.47;;;7.90;99.90;;;;;;5056618;28;20217;-80
2023/02/12 07:14:15;;;;;;;53.70;33.20;;;7.90;99.90;;;;;;5038973;28;20241;-78
2023/02/12 07:16:42;;;;;;;55.17;31.80;;;8.00;99.90;;;;;;5055649;28;20208;-80
2023/02/12 07:19:10;;;;;;;50.53;30.13;;;7.80;99.90;;;;;;5056788;28;20424;-80
2023/02/12 07:21:36;;;;;;;47.90;29.10;;;7.90;99.90;;;;;;5056610;28;20428;-77
2023/02/12 07:24:02;;;;;;;51.63;30.93;;;7.90;99.90;;;;;;5037587;28;20420;-78
2023/02/12 07:26:28;;;;;;;49.53;31.53;;;8.00;99.90;;;;;;5056584;28;20673;-80
2023/02/12 07:28:55;;;;;;;43.10;28.63;;;8.20;99.90;;;;;;5056042;28;20178;-79
2023/02/12 07:31:22;;;;;;;49.50;30.30;;;7.90;99.90;;;;;;5055086;28;20201;-79
2023/02/12 07:33:52;;;;;;;50.20;29.87;;;7.90;99.90;;;;;;5054334;28;20514;-79
2023/02/12 07:36:19;;;;;;;51.03;29.63;;;8.00;99.90;;;;;;5057618;28;20475;-78
2023/02/12 07:38:45;;;;;;;52.00;31.30;;;8.10;99.90;;;;;;5049447;28;20501;-78
2023/02/12 07:41:19;;;;;;;55.90;30.73;;;8.00;99.90;;;;;;5039846;28;20888;-78
2023/02/12 07:43:47;;;;;;;50.30;32.23;;;8.00;99.90;;;;;;5039269;28;20459;-77
2023/02/12 07:46:18;;;;;;;51.00;31.60;;;8.00;99.90;;;;;;5070544;28;20436;-78
2023/02/12 07:48:45;;;;;;;50.73;30.77;;;8.00;99.90;;;;;;5054025;28;20443;-78
2023/02/12 07:51:14;;;;;;;49.33;30.33;;;8.20;99.90;;;;;;5038110;28;20433;-78
2023/02/12 07:53:40;;;;;;;52.03;31.20;;;8.00;99.90;;;;;;5038406;28;20500;-78
2023/02/12 07:56:14;;;;;;;50.60;31.03;;;8.10;99.90;;;;;;5070141;28;20425;-78
2023/02/12 07:58:43;;;;;;;51.90;29.50;;;8.10;99.90;;;;;;5038184;28;20417;-79
2023/02/12 08:01:17;;;;;;;51.23;30.70;;;8.00;99.90;;;;;;5038899;28;20467;-78
2023/02/12 08:03:44;;;;;;;49.13;28.50;;;8.00;99.90;;;;;;5038578;28;20417;-79
2023/02/12 08:06:21;;;;;;;48.70;30.90;;;8.00;99.90;;;;;;5038090;28;20417;-78
2023/02/12 08:08:50;;;;;;;53.13;31.70;;;8.10;99.90;;;;;;5054059;28;20429;-78
2023/02/12 08:11:16;;;;;;;53.37;31.67;;;8.10;99.90;;;;;;5037820;28;20453;-77
2023/02/12 08:13:43;;;;;;;51.00;30.43;;;8.20;99.90;;;;;;5038991;28;20471;-77
2023/02/12 08:16:11;;;;;;;50.50;30.90;;;8.10;99.90;;;;;;5038326;28;20555;-79
2023/02/12 08:18:37;;;;;;;49.60;31.87;;;8.10;99.90;;;;;;5070616;28;20487;-78
2023/02/12 08:21:03;;;;;;;53.10;28.80;;;8.30;99.90;;;;;;5070130;28;20432;-78
2023/02/12 08:23:29;;;;;;;50.97;29.90;;;8.10;99.90;;;;;;5036028;28;20196;-79
2023/02/12 08:25:54;;;;;;;46.10;29.23;;;8.30;99.90;;;;;;5038443;28;20189;-79
2023/02/12 08:28:22;;;;;;;50.90;29.87;;;8.20;99.90;;;;;;5054088;28;20425;-78
2023/02/12 08:30:47;;;;;;;50.23;30.30;;;8.20;99.90;;;;;;5039024;28;20222;-79
2023/02/12 08:33:13;;;;;;;51.00;29.60;;;8.20;99.90;;;;;;5036744;28;20488;-78
2023/02/12 08:35:38;;;;;;;48.43;30.20;;;8.20;99.90;;;;;;5038641;28;20650;-78
2023/02/12 08:38:04;;;;;;;53.23;29.60;;;8.50;99.90;;;;;;5043029;28;20376;-78
2023/02/12 08:40:30;;;;;;;45.80;28.67;;;8.20;99.90;;;;;;5058608;28;20181;-78
2023/02/12 08:42:55;;;;;;;47.53;28.97;;;8.20;99.90;;;;;;5057318;28;20238;-79
2023/02/12 08:45:21;;;;;;;46.73;27.10;;;8.40;99.90;;;;;;5057535;28;20177;-77
2023/02/12 08:47:47;;;;;;;47.23;29.00;;;8.30;99.90;;;;;;5057132;28;20177;-79
2023/02/12 08:50:13;;;;;;;45.70;27.93;;;8.30;99.90;;;;;;5058474;28;20253;-77
2023/02/12 08:52:38;;;;;;;44.70;26.97;;;8.30;99.90;;;;;;5058109;28;20440;-79
2023/02/12 08:55:04;;;;;;;47.40;27.43;;;8.30;99.90;;;;;;5058856;28;20620;-78
2023/02/12 08:57:30;;;;;;;43.67;28.00;;;8.30;99.90;;;;;;5061282;28;20178;-77
2023/02/12 08:59:55;;;;;;;47.03;27.80;;;8.40;99.90;;;;;;5061744;28;20443;-79
2023/02/12 09:02:21;;;;;;;47.80;28.17;;;8.40;99.90;;;;;;5062818;28;20209;-78
2023/02/12 09:04:46;;;;;;;46.67;28.70;;;8.40;99.90;;;;;;5061951;28;20177;-78
2023/02/12 09:07:12;;;;;;;43.67;25.90;;;8.40;99.90;;;;;;5061488;28;20174;-78
2023/02/12 09:09:38;;;;;;;47.60;28.43;;;8.40;99.90;;;;;;5062294;28;20253;-77
2023/02/12 09:12:04;;;;;;;45.30;27.53;;;8.40;99.90;;;;;;5045255;28;20217;-78
2023/02/12 09:14:29;;;;;;;44.17;27.50;;;8.40;99.90;;;;;;5060958;28;20704;-78
2023/02/12 09:16:57;;;;;;;42.57;26.93;;;8.50;99.90;;;;;;5061511;28;20440;-79
2023/02/12 09:19:24;;;;;;;40.03;25.40;;;8.50;99.90;;;;;;5044261;28;20181;-77
2023/02/12 09:21:53;;;;;;;40.70;25.20;;;8.50;99.90;;;;;;5060720;28;20428;-79
2023/02/12 09:24:19;;;;;;;38.53;24.87;;;8.30;99.90;;;;;;5059427;28;20427;-77
2023/02/12 09:26:45;;;;;;;39.53;26.00;;;8.50;99.90;;;;;;5061474;28;20416;-78
2023/02/12 09:29:10;;;;;;;42.10;26.60;;;8.50;99.90;;;;;;5062067;28;20276;-78
2023/02/12 09:31:36;;;;;;;38.70;24.70;;;8.60;99.90;;;;;;5060272;28;20205;-78
2023/02/12 09:34:04;;;;;;;43.70;27.27;;;8.60;99.90;;;;;;5060474;28;20216;-79
2023/02/12 09:36:31;;;;;;;38.17;24.97;;;8.60;99.90;;;;;;5061861;28;20228;-78
2023/02/12 09:38:58;;;;;;;37.00;24.47;;;8.60;99.90;;;;;;5048322;28;20448;-78
2023/02/12 09:41:54;;;;;;;41.40;26.20;;;8.60;99.90;;;;;;5042005;28;20576;-78
2023/02/12 09:44:44;;;;;;;35.10;23.13;;;8.60;99.90;;;;;;5042260;28;20425;-79
2023/02/12 09:47:14;;;;;;;36.10;22.90;;;8.60;99.90;;;;;;5040598;28;20430;-77
2023/02/12 09:50:11;;;;;;;36.93;24.43;;;8.70;99.90;;;;;;5040283;28;20440;-78
2023/02/12 09:52:37;;;;;;;44.27;25.70;;;8.70;99.90;;;;;;5040249;28;20476;-78
2023/02/12 09:55:03;;;;;;;43.20;25.80;;;8.70;99.90;;;;;;5023727;28;20468;-79
2023/02/12 09:57:35;;;;;;;44.03;26.50;;;8.70;99.90;;;;;;5039956;28;20413;-78
2023/02/12 10:00:07;;;;;;;37.87;25.50;;;8.70;99.90;;;;;;5041646;28;20413;-77
2023/02/12 10:02:38;;;;;;;38.43;25.07;;;8.80;99.90;;;;;;5041850;28;20444;-78
2023/02/12 10:05:09;;;;;;;44.67;26.67;;;8.70;99.90;;;;;;5041802;28;20464;-78
2023/02/12 10:07:59;;;;;;;41.83;28.50;;;8.80;99.90;;;;;;5073505;28;20436;-77
2023/02/12 10:10:36;;;;;;;38.33;25.23;;;8.80;99.90;;;;;;5042448;28;20422;-79
2023/02/12 10:13:13;;;;;;;46.70;28.00;;;8.80;99.90;;;;;;5040331;28;20614;-79
2023/02/12 10:16:06;;;;;;;41.30;26.60;;;8.90;99.90;;;;;;5041851;28;20412;-78
2023/02/12 10:18:50;;;;;;;41.50;25.10;;;8.90;99.90;;;;;;5041917;28;20420;-78
2023/02/12 10:21:43;;;;;;;35.67;25.03;;;8.90;99.90;;;;;;5042176;28;20493;-77
2023/02/12 10:24:37;;;;;;;38.77;24.73;;;8.80;99.90;;;;;;5040882;28;20965;-78
2023/02/12 10:27:13;;;;;;;44.17;26.57;;;8.80;99.90;;;;;;5073683;28;20421;-79
2023/02/12 10:29:42;;;;;;;38.53;24.70;;;8.90;99.90;;;;;;5073738;28;20421;-77
2023/02/12 10:32:24;;;;;;;42.60;25.47;;;9.00;99.90;;;;;;5042367;28;20441;-78
2023/02/12 10:34:51;;;;;;;41.50;23.93;;;9.00;99.90;;;;;;5038954;28;20464;-77
2023/02/12 10:37:38;;;;;;;38.90;23.40;;;9.00;99.90;;;;;;5037927;28;20489;-78
2023/02/12 10:40:26;;;;;;;42.63;25.33;;;9.00;99.90;;;;;;5017976;28;20450;-78
2023/02/12 10:42:52;;;;;;;38.97;24.43;;;9.10;99.90;;;;;;5020907;28;21000;-77
2023/02/12 10:45:22;;;;;;;39.77;25.20;;;9.10;99.90;;;;;;5021319;28;20410;-78
2023/02/12 10:47:53;;;;;;;36.20;24.20;;;9.20;99.90;;;;;;5020777;28;20406;-79
2023/02/12 10:50:42;;;;;;;35.33;23.20;;;9.10;99.90;;;;;;5020250;28;20998;-77
2023/02/12 10:53:19;;;;;;;30.73;21.93;;;9.10;99.90;;;;;;5020351;28;21024;-77
2023/02/12 10:55:44;;;;;;;35.37;22.97;;;9.20;99.90;;;;;;5021442;28;20497;-78
2023/02/12 10:58:23;;;;;;;32.90;23.70;;;9.30;99.90;;;;;;5021373;28;20426;-78
2023/02/12 11:00:57;;;;;;;38.07;24.53;;;9.30;99.90;;;;;;5018807;28;20175;-78
2023/02/12 11:03:28;;;;;;;35.80;23.03;;;9.40;99.90;;;;;;5020093;28;20516;-79
2023/02/12 11:05:54;;;;;;;36.37;24.03;;;9.40;99.90;;;;;;5021318;28;20430;-79
2023/02/12 11:08:31;;;;;;;34.80;22.30;;;9.40;99.90;;;;;;5019746;28;20457;-78
2023/02/12 11:11:26;;;;;;;37.80;23.50;;;9.40;99.90;;;;;;5020201;28;20750;-79
2023/02/12 11:14:19;;;;;;;38.17;24.47;;;9.40;99.90;;;;;;5016777;28;20470;-79
2023/02/12 11:16:57;;;;;;;33.97;22.27;;;9.40;99.90;;;;;;5002995;28;20430;-77
2023/02/12 11:19:27;;;;;;;32.13;21.93;;;9.40;99.90;;;;;;5019422;28;20476;-79
2023/02/12 11:22:10;;;;;;;37.50;24.83;;;9.40;99.90;;;;;;5019245;28;20449;-77
2023/02/12 11:24:36;;;;;;;35.73;23.83;;;9.40;99.90;;;;;;5002530;28;20460;-78
2023/02/12 11:27:14;;;;;;;35.73;24.07;;;9.40;99.90;;;;;;5020409;28;20406;-78
2023/02/12 11:29:41;;;;;;;34.80;23.80;;;9.30;99.90;;;;;;5020487;28;20792;-79
2023/02/12 11:32:11;;;;;;;37.23;22.30;;;9.40;99.90;;;;;;5019096;28;20509;-78
2023/02/12 11:34:37;;;;;;;38.47;23.57;;;9.40;99.90;;;;;;5020029;28;20504;-78
2023/02/12 11:37:04;;;;;;;35.87;23.80;;;9.40;99.90;;;;;;5019182;28;20421;-77
2023/02/12 11:39:35;;;;;;;35.70;23.00;;;9.40;99.90;;;;;;5051777;28;20190;-79
2023/02/12 11:42:23;;;;;;;39.30;23.67;;;9.40;99.90;;;;;;5058313;28;20451;-79
2023/02/12 11:44:54;;;;;;;35.47;22.30;;;9.40;99.90;;;;;;5059062;28;20830;-78
2023/02/12 11:47:25;;;;;;;32.13;23.50;;;9.40;99.90;;;;;;5059086;28;20424;-78
2023/02/12 11:50:18;;;;;;;39.70;24.10;;;9.40;99.90;;;;;;5060039;28;20829;-79
2023/02/12 11:52:49;;;;;;;32.97;21.30;;;9.40;99.90;;;;;;5060437;28;20526;-78
2023/02/12 11:55:27;;;;;;;39.40;23.03;;;9.30;99.90;;;;;;5060212;28;20500;-77
2023/02/12 11:58:12;;;;;;;36.40;21.77;;;9.20;99.90;;;;;;5058200;28;20408;-78
2023/02/12 12:01:00;;;;;;;34.77;21.23;;;9.20;99.90;;;;;;5058593;28;20439;-80
2023/02/12 12:03:44;;;;;;;32.10;20.43;;;9.30;99.90;;;;;;5058457;28;20423;-77
2023/02/12 12:06:35;;;;;;;36.47;22.17;;;9.30;99.90;;;;;;5042103;28;20409;-79
2023/02/12 12:09:12;;;;;;;34.10;21.20;;;9.40;99.90;;;;;;5059556;28;20470;-78
2023/02/12 12:11:57;;;;;;;36.20;21.47;;;9.40;99.90;;;;;;5058732;28;20518;-77
2023/02/12 12:14:30;;;;;;;35.90;22.20;;;9.40;99.90;;;;;;5058348;28;20474;-79
2023/02/12 12:19:51;;;;;;;35.50;22.37;;;9.40;99.90;;;;;;5059206;28;20405;-78
2023/02/12 12:22:36;;;;;;;33.13;21.33;;;9.40;99.90;;;;;;5063689;28;20507;-75
2023/02/12 12:25:21;;;;;;;31.83;21.40;;;9.40;99.90;;;;;;5058561;28;20498;-78
2023/02/12 12:28:01;;;;;;;36.27;22.73;;;9.40;99.90;;;;;;5058175;28;20483;-78
2023/02/12 12:30:58;;;;;;;36.93;22.33;;;9.40;99.90;;;;;;5059914;28;20852;-78
2023/02/12 12:33:32;;;;;;;40.53;23.30;;;9.50;99.90;;;;;;5062098;28;20506;-77
2023/02/12 12:36:19;;;;;;;41.17;24.23;;;9.50;99.90;;;;;;5058170;28;20435;-77
2023/02/12 12:39:01;;;;;;;36.30;23.13;;;9.50;99.90;;;;;;5048219;28;20425;-78
2023/02/12 12:41:48;;;;;;;34.60;23.07;;;9.50;99.90;;;;;;5038779;28;20544;-78
2023/02/12 12:44:36;;;;;;;38.80;22.43;;;9.60;99.90;;;;;;5070497;28;20965;-75
2023/02/12 12:47:31;;;;;;;33.00;21.13;;;9.50;99.90;;;;;;5054028;28;20423;-78
2023/02/12 12:50:11;;;;;;;37.17;23.47;;;9.50;99.90;;;;;;5070354;28;20457;-77
2023/02/12 12:53:05;;;;;;;37.70;23.83;;;9.40;99.90;;;;;;5037741;28;20436;-78
2023/02/12 12:55:34;;;;;;;36.90;24.00;;;9.40;99.90;;;;;;5037613;28;20953;-77
2023/02/12 12:58:25;;;;;;;34.70;23.47;;;9.40;99.90;;;;;;5038659;28;20477;-77
2023/02/12 13:01:14;;;;;;;38.67;24.10;;;9.40;99.90;;;;;;5037809;28;20472;-76
2023/02/12 13:03:52;;;;;;;34.40;22.93;;;9.40;99.90;;;;;;5037888;28;20402;-78
2023/02/12 13:06:44;;;;;;;39.03;24.30;;;9.40;99.90;;;;;;5038657;28;20438;-78